Terminal Aerodrome Forecast
Issued by NWS Boston, MA

Home | Current Version | Previous Version | Text Only | Print | Product List | Glossary Off
Versions: 1 2 3 4 5 6 7 8 9 10 11 12 13 14 15 16 17 18 19 20
000 FTUS41 KBOX 191720 TAFPVD TAF KPVD 191720Z 1918/2018 22012G22KT P6SM SKC FM200000 22007KT P6SM FEW250 FM200800 28006KT P6SM SKC FM201400 30010KT P6SM SKC=

USA.gov is the U.S. government's official web portal to all federal, state and local government web resources and services.